Altair, TX (77412)

1:14 PM CST on November 23, 2014 (GMT -0600)
Borden | Change Station
CLOSE
Current Station
Personal Weather Station
Location: Weimar, TX
Elevation: 341 ft
Nearby Weather Stations

Elev 341 ft 29.66 °N, 96.67 °W | Updated 5 seconds ago

Clear
Clear
81.3 °F
Feels Like 81 °F
N
2.8
Wind Variable Wind from SW
Gusts 15.2 mph

Today
High -- | Low -- °F
--% Chance of Precip.
Yesterday
High -- | Low -- °F
Precip. -- in
6:57 AM 5:27 PM
New Moon, 2% visible
Pressure 29.55 in
Visibility 10.0 miles
Clouds Clear
Heat Index 81 °F
Dew Point 58 °F
Humidity 45%
Rainfall 0.00 in
Snow Depth Not available.
UV 0.0 out of 12
Pollen 1.80 out of 12
Air Quality Not available.
Flu Activity Not available.
METAR K3T5 231855Z AUTO 22012G16KT 10SM CLR 26/12 A2955 RMK AO2 T02550117

More Conditions Fewer Conditions

Pressure 29.55 in
Visibility 10.0 miles
Clouds Clear
Heat Index 81 °F
Dew Point 58 °F
Humidity 45%
Rainfall 0.00 in
Snow Depth Not available.
UV 0.0 out of 12
Pollen 1.80 out of 12
Air Quality Not available.
Flu Activity Not available.
METAR K3T5 231855Z AUTO 22012G16KT 10SM CLR 26/12 A2955 RMK AO2 T02550117

More Conditions Fewer Conditions

10-Day Weather Forecast

Almanac

Astronomy

Nov. 23, 2014 Rise Set
Actual Time
Civil Twilight
Nautical Twilight
Astronomical Twilight
Moon
Length of Visible Light
Length of Day
Tomorrow will be .
, % of the Moon is Illuminated

Today's Extremes

State Highs State Lows

Community

WunderPhotos

Upload Photos

1,773,141 photos uploaded!

WunderBlogs® & News

Nearby

Air Quality

  Air Quality AQ Index Pollutant
Not available.

Snow Depth

Station Depth Elevation

Earthquake Activity

City Distance Mag. Time & Date
Minimum magnitude displayed is 2.5.

Coastal Water Temperatures

Place Temperature

Nearby Weather Stations